Webcam Richtung Westen

Webcam27

Webcam Richtung Norden

Webcam36

Webcam Richtung Osten

Webcam09

Wetter(Würzburg):
160800Z AUTO 03005G08KT 42KM FEW028 BKN034 M02/M06 Q1027
		
Sat 16.01.2021, 08:00 UTC

Sichtweite bis zu 42 km
Wind aus 30° mit 05kt, in Böen bis zu 08kt
vereinzelte Wolken (1-2 Achtel) bei 2800 Fuß
unterbrochene Wolkendecke (5-7 Achtel) bei 3400 Fuß
Temperatur: -2 °C
Taupunkt: -6 °C
QNH: 1027 hPa
                         Heute        Morgen
                         16.01        17.01
--------------------------------------------
Beginn der Dämmerung     06:35        06:34
Sonnenaufgang            07:11        07:11
Sonnenuntergang          15:48        15:50
Ende der Dämmerung       16:25        16:26

Alle Zeiten in UTC